NY11 weather

Lakestone Farm Airport
Macedon, New York, United States

Public forecast

Using degrees Fahrenheit for public forecast. Weather courtesy of forecast.io.

Closest aviation weather report (METAR) to Lakestone Farm Airport

Closest report is Greater Rochester International Airport, 16.8 nm (31.0 km) WNW. Retrieved 2019/10/17 00:54 UTC (40 minutes ago):

KROC 170054Z 24008KT 10SM BKN050 BKN100 09/07 A2949

Closest aviation forecast (TAF) to Lakestone Farm Airport

Closest forecast is Greater Rochester International Airport, 16.8 nm (31.0 km) WNW. Retrieved 2019-10-17 00:40 UTC (54 minutes ago):

TAF KROC 162338Z 1700/1724 25008KT P6SM OVC035 FM170500 27010KT P6SM VCSH OVC025 FM170800 29016G24KT 6SM -SHRA BR OVC025 FM171300 30020G30KT 3SM SHRA BR OVC012 FM172000 29020G30KT P6SM VCSH OVC025